KLNK/LNK METAR and TAF weather

Enter ICAO airport designator
Station Type Date Time Source
KLNK METAR 2022/05/24 10:54 UTC NOAA

KLNK 241054Z 01003KT 10SM OVC100 12/04 A3009 RMK AO2 SLP187 T01170039


Station Type Date Time Source
KLNK Decoded METAR 2022/05/24 10:54 UTC NOAA

LINCOLN MUNICIPAL AIRPORT, NE, United States (KLNK) 40-50N 96-46W 364M
May 24, 2022 - 06:54 AM EDT / 2022.05.24 1054 UTC
Wind: from the N (010 degrees) at 3 MPH (3 KT):0
Visibility: 10 mile(s):0
Sky conditions: overcast
Temperature: 53.1 F (11.7 C)
Dew Point: 39.0 F (3.9 C)
Relative Humidity: 58%
Pressure (altimeter): 30.09 in. Hg (1018 hPa)
ob: KLNK 241054Z 01003KT 10SM OVC100 12/04 A3009 RMK AO2 SLP187 T01170039
cycle: 11

Station Type Date Time Source
KLNK TAF 2022/05/24 12:22 UTC NOAA

TAF KLNK 241120Z 2412/2512 06009KT P6SM OVC070
FM241400 09011KT 6SM -SHRA OVC025
FM241800 07012G20KT 4SM SHRA BR OVC015
FM242200 06015G25KT 2SM SHRA BR OVC008
FM250600 04014KT 5SM SHRA BR OVC007

Example: see airport list